Time;durP1;ratioP1;P1;durP2;ratioP2;P2;SDS_P1;SDS_P2;PMS_P1;PMS_P2;Temp;Humidity;BMP_temperature;BMP_pressure;BME280_temperature;BME280_humidity;BME280_pressure;Samples;Min_cycle;Max_cycle;Signal;HPM_P1;HPM_P2
2022/06/11 00:00:09;;;;;;;;;32.00;29.00;;;;;;;;4963957;28;8814;-70
2022/06/11 00:02:36;;;;;;;;;24.00;22.25;;;;;;;;4964116;28;8791;-68
2022/06/11 00:05:02;;;;;;;;;30.50;26.25;;;;;;;;4981232;28;8794;-68
2022/06/11 00:07:29;;;;;;;;;28.50;23.75;;;;;;;;4981123;28;8784;-68
2022/06/11 00:09:56;;;;;;;;;31.25;27.50;;;;;;;;4981930;28;8768;-68
2022/06/11 00:12:23;;;;;;;;;33.50;29.25;;;;;;;;4980775;28;8791;-68
2022/06/11 00:14:49;;;;;;;;;31.50;28.75;;;;;;;;4980925;28;8827;-68
2022/06/11 00:17:16;;;;;;;;;31.50;27.25;;;;;;;;4980667;28;8776;-68
2022/06/11 00:19:43;;;;;;;;;30.25;27.50;;;;;;;;4980890;28;8728;-68
2022/06/11 00:22:10;;;;;;;;;30.75;28.75;;;;;;;;4981846;28;8787;-68
2022/06/11 00:24:38;;;;;;;;;28.75;23.50;;;;;;;;4980442;28;8861;-66
2022/06/11 00:27:05;;;;;;;;;25.50;25.25;;;;;;;;4980785;28;8763;-71
2022/06/11 00:29:32;;;;;;;;;36.00;29.00;;;;;;;;4980246;28;8759;-72
2022/06/11 00:31:59;;;;;;;;;30.50;27.00;;;;;;;;4963618;28;8779;-67
2022/06/11 00:34:26;;;;;;;;;30.25;26.00;;;;;;;;4980413;28;8800;-68
2022/06/11 00:36:52;;;;;;;;;29.25;25.25;;;;;;;;4981319;28;8764;-66
2022/06/11 00:39:19;;;;;;;;;30.50;27.00;;;;;;;;4963361;28;8846;-72
2022/06/11 00:41:47;;;;;;;;;36.25;29.00;;;;;;;;4963238;28;8778;-71
2022/06/11 00:44:14;;;;;;;;;31.00;25.25;;;;;;;;4980674;28;8775;-67
2022/06/11 00:46:40;;;;;;;;;32.00;27.25;;;;;;;;4980418;28;8766;-68
2022/06/11 00:49:22;;;;;;;;;30.25;27.25;;;;;;;;4981184;28;8744;-71
2022/06/11 00:51:49;;;;;;;;;27.25;22.25;;;;;;;;4980683;28;9425;-67
2022/06/11 00:54:18;;;;;;;;;36.50;31.25;;;;;;;;4963062;28;8794;-68
2022/06/11 00:56:49;;;;;;;;;39.50;30.25;;;;;;;;4963438;28;9494;-67
2022/06/11 00:59:17;;;;;;;;;37.75;33.50;;;;;;;;4980549;28;8779;-69
2022/06/11 01:01:43;;;;;;;;;41.50;34.50;;;;;;;;4962987;28;8744;-66
2022/06/11 01:04:29;;;;;;;;;37.50;30.50;;;;;;;;4963197;28;8783;-72
2022/06/11 01:06:56;;;;;;;;;35.25;30.00;;;;;;;;4980973;28;8744;-68
2022/06/11 01:09:25;;;;;;;;;30.50;24.50;;;;;;;;4962891;28;8854;-63
2022/06/11 01:12:05;;;;;;;;;43.50;32.75;;;;;;;;4963143;28;8776;-70
2022/06/11 01:14:41;;;;;;;;;32.75;30.25;;;;;;;;4962228;28;8783;-63
2022/06/11 01:17:15;;;;;;;;;39.50;31.00;;;;;;;;4962136;28;8917;-70
2022/06/11 01:19:44;;;;;;;;;30.50;26.25;;;;;;;;4980010;28;8829;-63
2022/06/11 01:22:28;;;;;;;;;24.00;22.60;;;;;;;;4980174;28;9427;-69
2022/06/11 01:24:57;;;;;;;;;24.40;22.80;;;;;;;;4980587;28;8768;-69
2022/06/11 01:27:29;;;;;;;;;27.50;23.00;;;;;;;;4977965;28;8771;-63
2022/06/11 01:29:56;;;;;;;;;27.50;23.25;;;;;;;;4979369;28;8771;-70
2022/06/11 01:32:41;;;;;;;;;19.40;16.40;;;;;;;;4979463;28;8852;-65
2022/06/11 01:35:22;;;;;;;;;13.00;13.00;;;;;;;;4979772;28;8760;-68
2022/06/11 01:37:53;;;;;;;;;21.60;18.20;;;;;;;;4979738;28;8837;-65
2022/06/11 01:40:23;;;;;;;;;17.20;14.20;;;;;;;;4980068;28;8763;-71
2022/06/11 01:42:54;;;;;;;;;17.40;16.40;;;;;;;;4979394;28;8821;-68
2022/06/11 01:45:27;;;;;;;;;16.60;13.20;;;;;;;;4962138;28;8784;-63
2022/06/11 01:47:53;;;;;;;;;15.60;12.00;;;;;;;;4979432;28;8777;-71
2022/06/11 01:50:23;;;;;;;;;19.20;13.80;;;;;;;;4979312;28;8775;-70
2022/06/11 01:53:13;;;;;;;;;14.80;10.00;;;;;;;;4977812;28;8764;-67
2022/06/11 01:55:58;;;;;;;;;17.60;13.40;;;;;;;;4979177;28;8935;-71
2022/06/11 01:58:44;;;;;;;;;18.20;14.80;;;;;;;;4978616;28;8772;-67
2022/06/11 02:01:26;;;;;;;;;18.20;15.80;;;;;;;;4979832;28;8791;-69
2022/06/11 02:03:55;;;;;;;;;17.40;15.40;;;;;;;;4979643;28;8744;-69
2022/06/11 02:06:33;;;;;;;;;17.60;14.60;;;;;;;;4978526;28;8798;-66
2022/06/11 02:09:08;;;;;;;;;17.40;13.60;;;;;;;;4962017;28;8786;-68
2022/06/11 02:11:45;;;;;;;;;18.00;13.40;;;;;;;;4961467;28;8779;-70
2022/06/11 02:14:12;;;;;;;;;16.40;14.20;;;;;;;;4961666;28;8768;-67
2022/06/11 02:16:38;;;;;;;;;17.40;13.80;;;;;;;;4968504;28;8840;-71
2022/06/11 02:19:09;;;;;;;;;20.40;17.40;;;;;;;;4979521;28;8850;-68
2022/06/11 02:21:37;;;;;;;;;20.60;16.40;;;;;;;;4961016;28;8763;-69
2022/06/11 02:24:03;;;;;;;;;16.00;12.20;;;;;;;;4977745;28;8782;-67
2022/06/11 02:26:34;;;;;;;;;16.20;14.20;;;;;;;;4978520;28;8740;-67
2022/06/11 02:29:01;;;;;;;;;15.00;13.80;;;;;;;;4978243;28;9416;-68
2022/06/11 02:31:29;;;;;;;;;22.60;16.80;;;;;;;;4961141;28;8739;-71
2022/06/11 02:33:56;;;;;;;;;11.00;9.60;;;;;;;;4962238;28;8760;-64
2022/06/11 02:36:27;;;;;;;;;21.20;16.00;;;;;;;;4978336;28;8854;-69
2022/06/11 02:38:54;;;;;;;;;19.60;15.60;;;;;;;;4978315;28;9404;-69
2022/06/11 02:41:23;;;;;;;;;18.60;17.00;;;;;;;;4967929;28;8866;-61
2022/06/11 02:43:49;;;;;;;;;18.80;15.20;;;;;;;;4977877;28;8774;-67
2022/06/11 02:49:01;;;;;;;;;20.00;16.40;;;;;;;;4977968;28;8780;-65
2022/06/11 02:51:28;;;;;;;;;14.60;14.00;;;;;;;;4976879;28;8772;-71
2022/06/11 02:53:54;;;;;;;;;18.60;16.80;;;;;;;;4978187;28;8772;-68
2022/06/11 02:56:21;;;;;;;;;23.40;18.00;;;;;;;;4978214;28;8797;-64
2022/06/11 02:58:48;;;;;;;;;9.20;9.20;;;;;;;;4960938;28;8743;-71
2022/06/11 03:01:14;;;;;;;;;18.80;16.80;;;;;;;;4978919;28;8774;-68
2022/06/11 03:03:41;;;;;;;;;19.60;17.00;;;;;;;;4978161;28;8768;-68
2022/06/11 03:06:08;;;;;;;;;25.00;20.80;;;;;;;;4978207;28;8780;-65
2022/06/11 03:08:34;;;;;;;;;23.60;21.20;;;;;;;;4978074;28;8764;-68
2022/06/11 03:11:01;;;;;;;;;21.60;17.60;;;;;;;;4978039;28;8801;-71
2022/06/11 03:13:28;;;;;;;;;17.00;12.00;;;;;;;;4977821;28;8783;-66
2022/06/11 03:15:55;;;;;;;;;18.60;17.00;;;;;;;;4978569;28;8784;-71
2022/06/11 03:18:22;;;;;;;;;18.80;17.40;;;;;;;;4960068;28;8804;-66
2022/06/11 03:20:50;;;;;;;;;18.00;17.20;;;;;;;;4977106;28;8772;-67
2022/06/11 03:23:17;;;;;;;;;21.80;20.00;;;;;;;;4978261;28;8787;-68
2022/06/11 03:25:44;;;;;;;;;18.40;16.80;;;;;;;;4962087;28;8755;-68
2022/06/11 03:28:11;;;;;;;;;20.00;19.80;;;;;;;;4964737;28;8771;-69
2022/06/11 03:30:38;;;;;;;;;21.20;17.00;;;;;;;;4960811;28;8908;-61
2022/06/11 03:33:05;;;;;;;;;23.40;17.60;;;;;;;;4962436;28;8843;-68
2022/06/11 03:35:32;;;;;;;;;24.40;20.40;;;;;;;;4962081;28;9438;-67
2022/06/11 03:37:58;;;;;;;;;20.60;17.60;;;;;;;;4977511;28;8785;-69
2022/06/11 03:40:28;;;;;;;;;20.25;20.00;;;;;;;;4962154;28;8781;-67
2022/06/11 03:42:54;;;;;;;;;22.60;18.20;;;;;;;;4961645;28;8805;-60
2022/06/11 03:45:21;;;;;;;;;20.40;17.40;;;;;;;;4977311;28;8911;-66
2022/06/11 03:47:48;;;;;;;;;23.75;19.75;;;;;;;;4981730;28;8775;-68
2022/06/11 03:50:19;;;;;;;;;20.75;15.75;;;;;;;;4981669;28;8821;-66
2022/06/11 03:52:46;;;;;;;;;25.20;19.40;;;;;;;;4981258;28;8795;-68
2022/06/11 03:55:13;;;;;;;;;22.80;17.20;;;;;;;;4982050;28;8796;-64
2022/06/11 03:57:39;;;;;;;;;18.00;16.00;;;;;;;;4969958;28;8833;-68
2022/06/11 04:00:07;;;;;;;;;19.60;16.80;;;;;;;;4981299;28;8768;-69
2022/06/11 04:02:33;;;;;;;;;18.80;16.60;;;;;;;;4963935;28;9589;-65
2022/06/11 04:05:00;;;;;;;;;21.80;15.20;;;;;;;;4964244;28;8776;-62
2022/06/11 04:07:27;;;;;;;;;16.80;15.20;;;;;;;;4981093;28;8755;-69
2022/06/11 04:09:54;;;;;;;;;15.20;14.80;;;;;;;;4981713;28;8756;-60
2022/06/11 04:12:20;;;;;;;;;18.60;14.00;;;;;;;;4980871;28;8776;-67
2022/06/11 04:14:48;;;;;;;;;10.40;10.40;;;;;;;;4980679;28;8800;-67
2022/06/11 04:17:16;;;;;;;;;15.80;13.40;;;;;;;;4981102;28;8856;-61
2022/06/11 04:19:43;;;;;;;;;18.40;14.40;;;;;;;;4980967;28;8779;-66
2022/06/11 04:22:10;;;;;;;;;16.80;16.80;;;;;;;;4981710;28;8768;-72
2022/06/11 04:24:37;;;;;;;;;11.20;10.00;;;;;;;;4980563;28;9678;-62
2022/06/11 04:27:04;;;;;;;;;20.20;15.00;;;;;;;;4980731;28;8783;-66
2022/06/11 04:29:32;;;;;;;;;17.60;13.00;;;;;;;;4980402;28;8791;-73
2022/06/11 04:31:59;;;;;;;;;14.20;11.00;;;;;;;;4963535;28;8799;-72
2022/06/11 04:34:25;;;;;;;;;12.20;10.60;;;;;;;;4980741;28;8898;-62
2022/06/11 04:36:52;;;;;;;;;15.80;12.80;;;;;;;;4980497;28;8779;-71
2022/06/11 04:39:19;;;;;;;;;17.00;13.00;;;;;;;;4980053;28;8819;-70
2022/06/11 04:41:46;;;;;;;;;16.80;15.20;;;;;;;;4980431;28;8759;-71
2022/06/11 04:44:13;;;;;;;;;12.40;9.20;;;;;;;;4980498;28;9163;-67
2022/06/11 04:46:39;;;;;;;;;14.20;11.40;;;;;;;;4980655;28;8779;-72
2022/06/11 04:49:06;;;;;;;;;13.40;11.60;;;;;;;;4981367;28;8732;-72
2022/06/11 04:51:33;;;;;;;;;15.00;15.00;;;;;;;;4979189;28;8778;-67
2022/06/11 04:53:59;;;;;;;;;15.00;13.40;;;;;;;;4963258;28;8877;-71
2022/06/11 04:56:26;;;;;;;;;14.40;10.00;;;;;;;;4980206;28;8854;-72
2022/06/11 04:58:53;;;;;;;;;5.60;4.80;;;;;;;;4959979;28;8770;-72
2022/06/11 05:01:20;;;;;;;;;14.40;11.00;;;;;;;;4960399;28;8773;-67
2022/06/11 05:03:46;;;;;;;;;14.00;13.00;;;;;;;;4961024;28;8785;-70
2022/06/11 05:06:14;;;;;;;;;9.80;7.20;;;;;;;;4960950;28;8774;-71
2022/06/11 05:08:41;;;;;;;;;13.80;11.40;;;;;;;;4975737;28;9978;-68
2022/06/11 05:11:08;;;;;;;;;18.40;11.80;;;;;;;;4960500;28;9452;-66
2022/06/11 05:13:34;;;;;;;;;13.80;12.20;;;;;;;;4961797;28;8765;-71
2022/06/11 05:16:01;;;;;;;;;13.60;12.20;;;;;;;;4980718;28;8799;-71
2022/06/11 05:18:28;;;;;;;;;15.60;14.40;;;;;;;;4979742;28;8798;-66
2022/06/11 05:20:54;;;;;;;;;14.40;11.80;;;;;;;;4979958;28;8771;-63
2022/06/11 05:23:22;;;;;;;;;14.00;12.20;;;;;;;;4978364;28;8799;-70
2022/06/11 05:25:48;;;;;;;;;13.00;9.80;;;;;;;;4979957;28;8763;-71
2022/06/11 05:28:16;;;;;;;;;15.40;12.20;;;;;;;;4980605;28;8740;-71
2022/06/11 05:30:43;;;;;;;;;13.80;12.80;;;;;;;;4979387;28;8800;-58
2022/06/11 05:33:09;;;;;;;;;7.40;6.00;;;;;;;;4979765;28;8779;-58
2022/06/11 05:35:36;;;;;;;;;13.40;11.60;;;;;;;;4979356;28;8855;-71
2022/06/11 05:38:04;;;;;;;;;14.20;12.60;;;;;;;;4979587;28;8778;-71
2022/06/11 05:40:32;;;;;;;;;11.00;9.00;;;;;;;;4979153;28;8752;-65
2022/06/11 05:42:58;;;;;;;;;10.20;10.00;;;;;;;;4962582;28;8843;-71
2022/06/11 05:45:27;;;;;;;;;11.20;9.80;;;;;;;;4961413;28;8841;-70
2022/06/11 05:47:53;;;;;;;;;8.80;7.20;;;;;;;;4979345;28;8779;-67
2022/06/11 05:50:22;;;;;;;;;9.00;9.00;;;;;;;;4961597;28;9428;-63
2022/06/11 05:52:49;;;;;;;;;12.00;10.20;;;;;;;;4979271;28;8786;-71
2022/06/11 05:55:16;;;;;;;;;13.60;9.00;;;;;;;;4978757;28;8834;-71
2022/06/11 05:57:43;;;;;;;;;9.40;8.20;;;;;;;;4977783;28;9663;-59
2022/06/11 06:00:11;;;;;;;;;12.00;9.80;;;;;;;;4978919;28;9338;-62
2022/06/11 06:02:41;;;;;;;;;12.80;8.00;;;;;;;;4978842;28;8803;-71
2022/06/11 06:05:09;;;;;;;;;10.80;9.80;;;;;;;;4979111;28;8763;-70
2022/06/11 06:07:35;;;;;;;;;9.60;9.00;;;;;;;;4978947;28;8775;-71
2022/06/11 06:10:02;;;;;;;;;10.20;9.40;;;;;;;;4979852;28;8784;-62
2022/06/11 06:12:32;;;;;;;;;9.20;9.00;;;;;;;;4978620;28;8767;-71
2022/06/11 06:15:06;;;;;;;;;16.80;14.40;;;;;;;;4978554;28;8906;-69
2022/06/11 06:17:32;;;;;;;;;12.60;12.40;;;;;;;;4978604;28;8814;-68
2022/06/11 06:19:59;;;;;;;;;14.00;11.60;;;;;;;;4978871;28;8892;-72
2022/06/11 06:22:26;;;;;;;;;16.00;12.00;;;;;;;;4978898;28;8760;-70
2022/06/11 06:24:52;;;;;;;;;12.80;12.60;;;;;;;;4979604;28;8752;-69
2022/06/11 06:27:19;;;;;;;;;14.20;12.40;;;;;;;;4978241;28;8779;-70
2022/06/11 06:29:45;;;;;;;;;12.40;9.40;;;;;;;;4978732;28;8795;-67
2022/06/11 06:32:12;;;;;;;;;12.40;10.60;;;;;;;;4978733;28;8771;-65
2022/06/11 06:34:39;;;;;;;;;16.00;13.00;;;;;;;;4978379;28;8893;-72
2022/06/11 06:37:05;;;;;;;;;14.60;12.20;;;;;;;;4979271;28;8756;-71
2022/06/11 06:39:33;;;;;;;;;15.40;13.40;;;;;;;;4978443;28;8763;-71
2022/06/11 06:41:59;;;;;;;;;20.00;15.00;;;;;;;;4978220;28;8787;-68
2022/06/11 06:44:27;;;;;;;;;16.20;14.20;;;;;;;;4978275;28;8933;-72
2022/06/11 06:46:53;;;;;;;;;13.60;9.60;;;;;;;;4977488;28;8877;-70
2022/06/11 06:49:20;;;;;;;;;13.80;12.40;;;;;;;;4961454;28;8776;-71
2022/06/11 06:51:47;;;;;;;;;17.40;15.00;;;;;;;;4978274;28;8775;-67
2022/06/11 06:54:14;;;;;;;;;12.60;10.40;;;;;;;;4978271;28;8827;-67
2022/06/11 06:56:40;;;;;;;;;16.80;12.40;;;;;;;;4978478;28;8771;-67
2022/06/11 06:59:07;;;;;;;;;12.60;11.60;;;;;;;;4978611;28;8802;-60
2022/06/11 07:01:34;;;;;;;;;15.80;12.60;;;;;;;;4977348;28;8857;-57
2022/06/11 07:04:00;;;;;;;;;10.40;10.40;;;;;;;;4979073;28;8791;-67
2022/06/11 07:06:27;;;;;;;;;14.75;13.25;;;;;;;;4978450;28;9514;-71
2022/06/11 07:08:54;;;;;;;;;11.00;9.20;;;;;;;;4978351;28;8759;-59
2022/06/11 07:11:21;;;;;;;;;11.80;11.80;;;;;;;;4978138;28;8795;-68
2022/06/11 07:13:47;;;;;;;;;14.80;11.60;;;;;;;;4977832;28;8784;-65
2022/06/11 07:16:18;;;;;;;;;10.80;10.00;;;;;;;;4961631;28;9518;-65
2022/06/11 07:18:49;;;;;;;;;11.40;10.20;;;;;;;;4977049;28;8796;-64
2022/06/11 07:21:22;;;;;;;;;16.00;14.80;;;;;;;;4976915;28;8786;-65
2022/06/11 07:23:53;;;;;;;;;15.40;12.40;;;;;;;;4960761;28;8794;-65
2022/06/11 07:26:24;;;;;;;;;14.20;11.00;;;;;;;;4978109;28;8852;-64
2022/06/11 07:28:52;;;;;;;;;14.20;14.00;;;;;;;;4961000;28;8763;-64
2022/06/11 07:31:19;;;;;;;;;14.60;11.00;;;;;;;;4961732;28;8908;-64
2022/06/11 07:33:48;;;;;;;;;10.00;10.00;;;;;;;;4960849;28;8802;-65
2022/06/11 07:36:14;;;;;;;;;14.60;11.40;;;;;;;;4961156;28;8838;-65
2022/06/11 07:38:41;;;;;;;;;13.80;11.80;;;;;;;;4960573;28;8759;-65
2022/06/11 07:41:08;;;;;;;;;10.80;10.00;;;;;;;;4977909;28;8767;-65
2022/06/11 07:43:34;;;;;;;;;14.20;10.00;;;;;;;;4977712;28;8821;-65
2022/06/11 07:46:01;;;;;;;;;9.60;9.60;;;;;;;;4979021;28;8817;-65
2022/06/11 07:48:27;;;;;;;;;15.00;13.60;;;;;;;;4977796;28;8809;-64
2022/06/11 07:50:56;;;;;;;;;16.80;13.60;;;;;;;;4978232;28;8802;-65
2022/06/11 07:53:23;;;;;;;;;12.60;11.20;;;;;;;;4977467;28;8783;-65
2022/06/11 07:55:51;;;;;;;;;15.60;11.20;;;;;;;;4978258;28;8768;-65
2022/06/11 07:58:18;;;;;;;;;13.60;10.40;;;;;;;;4978382;28;8914;-64
2022/06/11 08:00:47;;;;;;;;;9.00;9.00;;;;;;;;4957114;29;8908;-65
2022/06/11 08:03:13;;;;;;;;;15.20;13.00;;;;;;;;4958788;29;8769;-65
2022/06/11 08:05:41;;;;;;;;;13.00;11.80;;;;;;;;4958586;28;8773;-64
2022/06/11 08:08:08;;;;;;;;;11.50;11.00;;;;;;;;4958334;29;9426;-65
2022/06/11 08:10:35;;;;;;;;;19.80;14.00;;;;;;;;4973138;28;8770;-65
2022/06/11 08:13:05;;;;;;;;;16.20;12.20;;;;;;;;4976823;28;8778;-65
2022/06/11 08:15:32;;;;;;;;;13.00;11.80;;;;;;;;4978545;28;8799;-64
2022/06/11 08:17:59;;;;;;;;;14.00;11.60;;;;;;;;4981562;28;8798;-65
2022/06/11 08:20:28;;;;;;;;;13.20;12.80;;;;;;;;4980678;28;9769;-64
2022/06/11 08:22:55;;;;;;;;;12.40;11.00;;;;;;;;4980297;28;8764;-65
2022/06/11 08:25:22;;;;;;;;;14.80;11.00;;;;;;;;4981559;28;8821;-65
2022/06/11 08:27:49;;;;;;;;;13.20;9.40;;;;;;;;4980356;28;8779;-65
2022/06/11 08:30:17;;;;;;;;;11.40;10.40;;;;;;;;4960488;28;8778;-65
2022/06/11 08:32:45;;;;;;;;;10.00;8.20;;;;;;;;4976882;28;8808;-65
2022/06/11 08:35:11;;;;;;;;;12.20;10.00;;;;;;;;4960204;28;8868;-65
2022/06/11 08:37:38;;;;;;;;;10.60;10.60;;;;;;;;4961291;28;8789;-65
2022/06/11 08:40:06;;;;;;;;;13.20;10.80;;;;;;;;4977071;28;8844;-65
2022/06/11 08:42:36;;;;;;;;;13.40;13.00;;;;;;;;4961325;28;8829;-65
2022/06/11 08:45:04;;;;;;;;;14.00;11.60;;;;;;;;4974268;28;8803;-65
2022/06/11 08:47:37;;;;;;;;;15.60;11.20;;;;;;;;4963409;28;8752;-65
2022/06/11 08:50:04;;;;;;;;;12.20;11.60;;;;;;;;4980945;28;8794;-65
2022/06/11 08:52:31;;;;;;;;;13.20;9.60;;;;;;;;4969813;28;8794;-65
2022/06/11 08:54:59;;;;;;;;;14.00;10.40;;;;;;;;4942951;29;8984;-65
2022/06/11 08:57:29;;;;;;;;;15.20;13.00;;;;;;;;4942206;28;8781;-65
2022/06/11 09:00:05;;;;;;;;;13.20;9.40;;;;;;;;4941952;28;9411;-65
2022/06/11 09:02:32;;;;;;;;;10.00;10.00;;;;;;;;4941636;28;8770;-65
2022/06/11 09:05:16;;;;;;;;;12.00;9.20;;;;;;;;4941893;28;8800;-65
2022/06/11 09:07:47;;;;;;;;;12.40;9.20;;;;;;;;4941805;28;8825;-65
2022/06/11 09:10:32;;;;;;;;;9.00;8.40;;;;;;;;4957034;28;8785;-65
2022/06/11 09:12:58;;;;;;;;;11.60;10.20;;;;;;;;4942214;29;8808;-65
2022/06/11 09:15:31;;;;;;;;;9.60;8.20;;;;;;;;4940954;28;8826;-65
2022/06/11 09:17:58;;;;;;;;;9.40;8.20;;;;;;;;4941466;28;8801;-65
2022/06/11 09:20:53;;;;;;;;;18.00;8.20;;;;;;;;4940922;28;8762;-65
2022/06/11 09:23:39;;;;;;;;;14.00;10.80;;;;;;;;4938710;29;9446;-64
2022/06/11 09:26:09;;;;;;;;;10.40;8.80;;;;;;;;4939979;28;8769;-65
2022/06/11 09:28:48;;;;;;;;;12.80;9.40;;;;;;;;4955746;28;8766;-65
2022/06/11 09:31:18;;;;;;;;;16.80;10.80;;;;;;;;4956247;29;8786;-65
2022/06/11 09:33:48;;;;;;;;;10.80;10.80;;;;;;;;4955524;28;8779;-65
2022/06/11 09:36:16;;;;;;;;;12.40;10.40;;;;;;;;4940989;28;8819;-65
2022/06/11 09:38:46;;;;;;;;;12.80;11.00;;;;;;;;4955968;29;8872;-65
2022/06/11 09:41:27;;;;;;;;;11.20;9.20;;;;;;;;4941337;28;8920;-65
2022/06/11 09:44:02;;;;;;;;;14.40;9.60;;;;;;;;4940985;28;8788;-65
2022/06/11 09:46:37;;;;;;;;;7.60;7.00;;;;;;;;4940771;28;8773;-65
2022/06/11 09:49:15;;;;;;;;;13.00;10.40;;;;;;;;4941351;29;8815;-65
2022/06/11 09:52:00;;;;;;;;;13.60;11.40;;;;;;;;4955276;28;8789;-65
2022/06/11 09:54:32;;;;;;;;;15.40;11.00;;;;;;;;4959600;28;8782;-65
2022/06/11 09:57:37;;;;;;;;;15.00;9.40;;;;;;;;4960147;28;8814;-65
2022/06/11 10:00:07;;;;;;;;;7.40;7.00;;;;;;;;4919729;29;8777;-65
2022/06/11 10:05:05;;;;;;;;;9.80;8.80;;;;;;;;4919741;29;8774;-65
2022/06/11 10:07:33;;;;;;;;;7.40;4.00;;;;;;;;4919827;29;8762;-65
2022/06/11 10:10:05;;;;;;;;;3.80;2.20;;;;;;;;4920621;29;8845;-65
2022/06/11 10:12:32;;;;;;;;;8.80;7.00;;;;;;;;4920111;29;8782;-65
2022/06/11 10:15:04;;;;;;;;;9.00;8.40;;;;;;;;4904128;29;8845;-65
2022/06/11 10:17:43;;;;;;;;;8.60;6.20;;;;;;;;4903916;29;8801;-65
2022/06/11 10:20:11;;;;;;;;;10.40;8.40;;;;;;;;4920065;29;8793;-65
2022/06/11 10:22:44;;;;;;;;;10.00;7.40;;;;;;;;4903836;29;8785;-65
2022/06/11 10:25:21;;;;;;;;;8.80;7.60;;;;;;;;4920414;29;8774;-65
2022/06/11 10:27:49;;;;;;;;;8.80;8.00;;;;;;;;4904035;29;8809;-65
2022/06/11 10:30:24;;;;;;;;;9.40;8.20;;;;;;;;4911798;29;8916;-65
2022/06/11 10:32:51;;;;;;;;;11.00;8.80;;;;;;;;4940788;29;8769;-65
2022/06/11 10:35:24;;;;;;;;;8.80;6.60;;;;;;;;4939322;28;8813;-61
2022/06/11 10:38:15;;;;;;;;;7.40;6.80;;;;;;;;4955134;29;8785;-65
2022/06/11 10:40:42;;;;;;;;;8.80;8.00;;;;;;;;4912962;28;8781;-66
2022/06/11 10:43:11;;;;;;;;;6.80;5.20;;;;;;;;4939280;29;8871;-65
2022/06/11 10:45:40;;;;;;;;;11.40;9.20;;;;;;;;4962310;28;9014;-65
2022/06/11 10:48:13;;;;;;;;;10.80;9.60;;;;;;;;4959197;28;8798;-66
2022/06/11 10:50:40;;;;;;;;;10.20;8.60;;;;;;;;4958931;28;8791;-65
2022/06/11 10:53:13;;;;;;;;;7.80;6.00;;;;;;;;4946623;29;8884;-65
2022/06/11 10:55:44;;;;;;;;;9.40;7.80;;;;;;;;4939776;28;8785;-65
2022/06/11 10:58:13;;;;;;;;;9.60;8.20;;;;;;;;4955228;28;8781;-65
2022/06/11 11:00:43;;;;;;;;;11.00;9.40;;;;;;;;4934854;29;8802;-65
2022/06/11 11:03:14;;;;;;;;;10.60;7.40;;;;;;;;4920885;29;8792;-65
2022/06/11 11:05:55;;;;;;;;;16.00;8.40;;;;;;;;4903708;29;8795;-65
2022/06/11 11:08:21;;;;;;;;;13.00;10.60;;;;;;;;4919352;29;8855;-65
2022/06/11 11:10:52;;;;;;;;;10.80;10.40;;;;;;;;4920956;29;8799;-65
2022/06/11 11:13:19;;;;;;;;;11.40;9.20;;;;;;;;4921294;29;8812;-62
2022/06/11 11:15:46;;;;;;;;;10.60;8.60;;;;;;;;4937218;28;8790;-66
2022/06/11 11:18:17;;;;;;;;;12.20;8.20;;;;;;;;4954411;28;8793;-65
2022/06/11 11:20:43;;;;;;;;;10.60;10.20;;;;;;;;4938549;28;8782;-65
2022/06/11 11:23:10;;;;;;;;;17.80;13.60;;;;;;;;4939619;28;8784;-65
2022/06/11 11:25:53;;;;;;;;;17.20;14.80;;;;;;;;4938190;28;8793;-65
2022/06/11 11:28:27;;;;;;;;;10.80;8.40;;;;;;;;4954967;29;8813;-64
2022/06/11 11:30:58;;;;;;;;;15.20;13.40;;;;;;;;4940485;28;8841;-65
2022/06/11 11:33:26;;;;;;;;;16.60;12.80;;;;;;;;4938391;29;8773;-65
2022/06/11 11:36:12;;;;;;;;;14.00;12.40;;;;;;;;4939526;28;8883;-65
2022/06/11 11:38:39;;;;;;;;;16.60;12.80;;;;;;;;4939514;28;8801;-65
2022/06/11 11:41:05;;;;;;;;;14.00;12.60;;;;;;;;4939595;28;8797;-65
2022/06/11 11:43:39;;;;;;;;;13.20;12.60;;;;;;;;4939349;28;8813;-65
2022/06/11 11:46:07;;;;;;;;;15.60;13.20;;;;;;;;4940227;28;8889;-65
2022/06/11 11:48:53;;;;;;;;;13.00;11.60;;;;;;;;4943099;28;8773;-65
2022/06/11 11:51:20;;;;;;;;;17.00;14.40;;;;;;;;4942866;28;8801;-64
2022/06/11 11:53:49;;;;;;;;;19.40;12.60;;;;;;;;4943763;29;8793;-65
2022/06/11 11:56:34;;;;;;;;;17.80;14.20;;;;;;;;4942953;28;8899;-65
2022/06/11 11:59:02;;;;;;;;;21.60;13.80;;;;;;;;4942997;28;8778;-65
2022/06/11 12:01:29;;;;;;;;;18.75;15.00;;;;;;;;4941942;28;8773;-65
2022/06/11 12:03:59;;;;;;;;;15.25;10.50;;;;;;;;4943824;29;8853;-65
2022/06/11 12:06:30;;;;;;;;;13.00;13.00;;;;;;;;4943054;28;8778;-65
2022/06/11 12:08:56;;;;;;;;;18.00;13.25;;;;;;;;4957577;28;8793;-65
2022/06/11 12:11:29;;;;;;;;;20.80;16.00;;;;;;;;4942235;28;8809;-65
2022/06/11 12:13:59;;;;;;;;;12.00;10.00;;;;;;;;4942130;28;9411;-65
2022/06/11 12:16:28;;;;;;;;;2.80;2.80;;;;;;;;4942355;28;8817;-65
2022/06/11 12:18:56;;;;;;;;;10.60;10.60;;;;;;;;4958042;29;8781;-65
2022/06/11 12:21:27;;;;;;;;;16.40;12.40;;;;;;;;4956882;28;8816;-65
2022/06/11 12:23:59;;;;;;;;;18.40;11.60;;;;;;;;4957195;28;8781;-65
2022/06/11 12:26:27;;;;;;;;;13.00;11.40;;;;;;;;4942573;28;8769;-65
2022/06/11 12:28:57;;;;;;;;;13.40;12.00;;;;;;;;4957357;28;8789;-66
2022/06/11 12:31:24;;;;;;;;;12.80;12.80;;;;;;;;4957684;28;8808;-65
2022/06/11 12:33:51;;;;;;;;;14.60;13.00;;;;;;;;4957900;29;8762;-65
2022/06/11 12:36:20;;;;;;;;;15.00;13.20;;;;;;;;4942553;28;8825;-64
2022/06/11 12:38:49;;;;;;;;;13.60;11.40;;;;;;;;4942766;28;9269;-65
2022/06/11 12:41:34;;;;;;;;;16.80;14.40;;;;;;;;4943065;28;8844;-65
2022/06/11 12:44:18;;;;;;;;;21.40;15.80;;;;;;;;4942782;28;8955;-65
2022/06/11 12:47:23;;;;;;;;;21.60;15.80;;;;;;;;4942835;28;8829;-65
2022/06/11 12:49:53;;;;;;;;;16.80;15.40;;;;;;;;4940206;29;8827;-65
2022/06/11 12:52:33;;;;;;;;;15.00;13.00;;;;;;;;4924791;29;8878;-65
2022/06/11 12:55:05;;;;;;;;;19.80;15.40;;;;;;;;4925116;29;8906;-65
2022/06/11 12:57:32;;;;;;;;;14.60;12.00;;;;;;;;4939626;29;8776;-65
2022/06/11 12:59:58;;;;;;;;;15.00;10.80;;;;;;;;4927106;29;8940;-65
2022/06/11 13:02:27;;;;;;;;;14.40;13.00;;;;;;;;4920852;29;8766;-65
2022/06/11 13:05:09;;;;;;;;;15.60;11.60;;;;;;;;4921421;29;8777;-65
2022/06/11 13:07:39;;;;;;;;;15.80;11.60;;;;;;;;4921945;29;8753;-65
2022/06/11 13:10:15;;;;;;;;;12.80;10.00;;;;;;;;4920958;29;8778;-65
2022/06/11 13:12:59;;;;;;;;;14.80;12.60;;;;;;;;4920652;29;9121;-65
2022/06/11 13:15:33;;;;;;;;;17.80;13.20;;;;;;;;4935415;29;8823;-65
2022/06/11 13:18:09;;;;;;;;;13.60;13.20;;;;;;;;4939961;29;8854;-65
2022/06/11 13:20:35;;;;;;;;;13.80;11.00;;;;;;;;4930993;28;8816;-65
2022/06/11 13:23:08;;;;;;;;;14.60;12.60;;;;;;;;4941699;29;9537;-65
2022/06/11 13:26:01;;;;;;;;;14.20;12.00;;;;;;;;4941475;28;8758;-65
2022/06/11 13:28:48;;;;;;;;;10.60;9.40;;;;;;;;4941859;28;8789;-65
2022/06/11 13:31:47;;;;;;;;;13.00;12.20;;;;;;;;4922543;29;8776;-65
2022/06/11 13:34:32;;;;;;;;;14.60;11.80;;;;;;;;4891523;29;8851;-65
2022/06/11 13:37:17;;;;;;;;;14.80;10.60;;;;;;;;4922759;29;9790;-65
2022/06/11 13:40:00;;;;;;;;;11.80;11.60;;;;;;;;4922445;29;9418;-65
2022/06/11 13:42:32;;;;;;;;;11.80;9.40;;;;;;;;4920742;29;8866;-64
2022/06/11 13:44:59;;;;;;;;;12.80;12.00;;;;;;;;4934094;28;8844;-65
2022/06/11 13:47:26;;;;;;;;;11.20;9.20;;;;;;;;4941529;28;8800;-64
2022/06/11 13:49:55;;;;;;;;;11.60;10.60;;;;;;;;4941812;28;8766;-66
2022/06/11 13:55:19;;;;;;;;;11.20;9.00;;;;;;;;4979362;28;8795;-64
2022/06/11 13:57:49;;;;;;;;;10.60;7.60;;;;;;;;4980396;28;8780;-65
2022/06/11 14:00:34;;;;;;;;;9.60;6.40;;;;;;;;4959217;28;8824;-66
2022/06/11 14:03:21;;;;;;;;;13.80;9.00;;;;;;;;4960386;28;8800;-65
2022/06/11 14:05:49;;;;;;;;;13.20;11.40;;;;;;;;4975111;28;8762;-65
2022/06/11 14:08:16;;;;;;;;;13.00;8.60;;;;;;;;4974867;28;8829;-66
2022/06/11 14:10:51;;;;;;;;;13.00;8.00;;;;;;;;4974612;28;8793;-65
2022/06/11 14:13:37;;;;;;;;;13.20;10.40;;;;;;;;4959191;28;8766;-64
2022/06/11 14:16:22;;;;;;;;;11.40;9.00;;;;;;;;4958585;28;8829;-65
2022/06/11 14:18:49;;;;;;;;;6.20;5.80;;;;;;;;4959439;28;8781;-65
2022/06/11 14:21:54;;;;;;;;;9.80;8.20;;;;;;;;4958250;28;8788;-65
2022/06/11 14:24:39;;;;;;;;;10.80;8.80;;;;;;;;4902924;29;8790;-65
2022/06/11 14:27:20;;;;;;;;;12.00;11.20;;;;;;;;4919123;29;8778;-65
2022/06/11 14:30:00;;;;;;;;;14.00;12.00;;;;;;;;4903544;29;8833;-65
2022/06/11 14:32:28;;;;;;;;;14.60;12.00;;;;;;;;4918942;29;8770;-65
2022/06/11 14:34:59;;;;;;;;;13.40;13.40;;;;;;;;4918811;29;8888;-65
2022/06/11 14:37:26;;;;;;;;;13.80;11.40;;;;;;;;4918675;29;8833;-65
2022/06/11 14:40:04;;;;;;;;;10.40;10.00;;;;;;;;4919354;29;8770;-65
2022/06/11 14:42:50;;;;;;;;;15.80;10.40;;;;;;;;4918222;29;8905;-65
2022/06/11 14:45:35;;;;;;;;;19.20;13.00;;;;;;;;4918650;29;8767;-65
2022/06/11 14:48:02;;;;;;;;;18.00;13.80;;;;;;;;4919043;29;8857;-65
2022/06/11 14:50:57;;;;;;;;;20.80;16.60;;;;;;;;4918737;29;8875;-65
2022/06/11 14:53:37;;;;;;;;;23.00;19.40;;;;;;;;4918177;29;8798;-65
2022/06/11 14:56:22;;;;;;;;;18.40;17.20;;;;;;;;4972710;28;8786;-65
2022/06/11 14:58:58;;;;;;;;;19.40;17.20;;;;;;;;4978301;28;8752;-65
2022/06/11 15:01:30;;;;;;;;;24.40;19.80;;;;;;;;4978365;28;9412;-57